Etusivu
METAR-TAF:

METAR-TAF

Lentoasemat :

Borlänge, Ruotsi

Leveyspiiri: 60-26N, Pituuspiiri: 015-31E, korkeus merenpinnasta: 145 m

Tämänhetkinen sää

Tämä raportti tehtiin 29 minuuttia sitten, kello 01.50 UTC
Tuuli 16 kn lännestä/luoteesta
Lämpötila 1°C
Kosteus 51%
Ilmanpaine 1008 hPa
Näkyvyys 10 km tai enemmän

METAR: ESSD 260150Z AUTO 30016KT 9999 SCT098/// 01/M08 Q1008

Aika: 03:19 (02:19 UTC)

Sääennuste

Tämä raportti tehtiin 14 tuntia ja 49 minuuttia sitten, kello 11.30 UTC
Ennuste voimassa 25. päivästä klo 12 UTC - 25. päivään klo 16 UTC
Tuuli 12 kn pohjoisen/luoteesta
Näkyvyys 10 km tai enemmän
ei pilviä alle 1500 m:ssä eikä cumulonimbus-pilviä

TAF: ESSD 251130Z 2512/2516 34012KT CAVOK

Säähavainnot ja -ennusteet yli 4000 lentoasemalta (METAR- ja TAF-raportit).

Käytössä olevat sääasemat on merkitty karttaan keltaisilla ja punaisilla pisteillä.

Aseta hiiri pisteen päälle nähdäksesi sääaseman nimen.

Klikkaa sitten nähdäksesi säähavainnot ja -ennusteet.

Kartan vaihtaminen: klikkaa mustalla rastilla varustettuja vihreitä pisteitä, niin voit zoomata sisään; viivalla varustettua vihreää pistettä, niin voit zoomata ulos tai vihreitä nuolia, niin pääset viereisille kartoille.


METAR-TAF: